createdAt,value
2022-10-22T00:00:55.898Z,10.07
2022-10-22T00:03:22.431Z,10.14
2022-10-22T00:05:48.835Z,10.11
2022-10-22T00:08:15.232Z,10.09
2022-10-22T00:10:41.922Z,10.09
2022-10-22T00:13:08.306Z,10.17
2022-10-22T00:15:34.827Z,10.24
2022-10-22T00:18:01.320Z,10.28
2022-10-22T00:20:27.761Z,10.27
2022-10-22T00:22:54.277Z,10.24
2022-10-22T00:25:20.700Z,10.20
2022-10-22T00:27:47.108Z,10.19
2022-10-22T00:30:13.730Z,10.23
2022-10-22T00:32:40.244Z,10.27
2022-10-22T00:35:07.642Z,10.32
2022-10-22T00:37:34.125Z,10.33
2022-10-22T00:40:00.490Z,10.37
2022-10-22T00:42:30.320Z,10.34
2022-10-22T00:45:11.585Z,10.34
2022-10-22T00:48:01.525Z,10.36
2022-10-22T00:50:38.352Z,10.28
2022-10-22T00:53:08.611Z,10.35
2022-10-22T00:55:35.549Z,10.29
2022-10-22T00:58:02.488Z,10.11
2022-10-22T01:00:29.046Z,10.05
2022-10-22T01:02:55.847Z,10.01
2022-10-22T01:05:22.853Z,10.00
2022-10-22T01:07:52.005Z,10.04
2022-10-22T01:10:30.208Z,10.01
2022-10-22T01:13:20.476Z,9.96
2022-10-22T01:16:03.772Z,9.94
2022-10-22T01:18:49.344Z,9.94
2022-10-22T01:21:24.806Z,9.98
2022-10-22T01:24:06.079Z,10.01
2022-10-22T01:27:12.964Z,10.16
2022-10-22T01:29:53.019Z,10.14
2022-10-22T01:32:23.254Z,10.19
2022-10-22T01:34:54.180Z,10.18
2022-10-22T01:37:24.022Z,10.19
2022-10-22T01:39:51.862Z,10.17
2022-10-22T01:42:18.331Z,10.19
2022-10-22T01:44:44.973Z,10.19
2022-10-22T01:47:21.214Z,10.24
2022-10-22T01:50:06.096Z,10.25
2022-10-22T01:52:57.918Z,10.46
2022-10-22T01:55:35.649Z,10.38
2022-10-22T01:58:15.375Z,10.46
2022-10-22T02:00:59.285Z,10.56
2022-10-22T02:03:35.986Z,10.40
2022-10-22T02:06:09.864Z,10.35
2022-10-22T02:08:37.277Z,10.35
2022-10-22T02:11:04.853Z,10.39
2022-10-22T02:13:41.475Z,10.34
2022-10-22T02:16:11.742Z,10.33
2022-10-22T02:18:42.907Z,10.42
2022-10-22T02:21:09.691Z,10.60
2022-10-22T02:23:36.467Z,10.61
2022-10-22T02:26:24.896Z,10.53
2022-10-22T02:29:06.656Z,10.62
2022-10-22T02:31:37.987Z,10.55
2022-10-22T02:34:10.137Z,10.50
2022-10-22T02:36:38.189Z,10.57
2022-10-22T02:39:08.324Z,10.47
2022-10-22T02:41:35.209Z,10.57
2022-10-22T02:44:03.030Z,10.48
2022-10-22T02:46:29.392Z,10.43
2022-10-22T02:48:55.780Z,10.60
2022-10-22T02:51:22.227Z,10.55
2022-10-22T02:53:48.635Z,10.40
2022-10-22T02:56:15.017Z,10.40
2022-10-22T02:58:41.440Z,10.49
2022-10-22T03:01:09.487Z,10.45
2022-10-22T03:03:38.791Z,10.37
2022-10-22T03:06:05.340Z,10.34
2022-10-22T03:08:31.885Z,10.51
2022-10-22T03:10:58.367Z,10.49
2022-10-22T03:13:24.730Z,10.42
2022-10-22T03:15:51.293Z,10.37
2022-10-22T03:18:18.019Z,10.51
2022-10-22T03:20:44.531Z,10.62
2022-10-22T03:23:14.462Z,10.46
2022-10-22T03:25:43.198Z,10.47
2022-10-22T03:28:13.153Z,10.52
2022-10-22T03:30:39.512Z,10.53
2022-10-22T03:33:05.905Z,10.45
2022-10-22T03:35:35.825Z,10.42
2022-10-22T03:38:02.252Z,10.49
2022-10-22T03:40:29.035Z,10.40
2022-10-22T03:42:55.557Z,10.42
2022-10-22T03:45:21.948Z,10.40
2022-10-22T03:47:48.369Z,10.42
2022-10-22T03:50:14.830Z,10.43
2022-10-22T03:52:41.200Z,10.53
2022-10-22T03:55:08.565Z,10.48
2022-10-22T03:57:35.005Z,10.45
2022-10-22T04:00:02.105Z,10.51
2022-10-22T04:02:28.511Z,10.50
2022-10-22T04:04:54.876Z,10.67
2022-10-22T04:07:21.269Z,10.60
2022-10-22T04:09:47.704Z,10.64
2022-10-22T04:12:14.185Z,10.50
2022-10-22T04:14:40.546Z,10.46
2022-10-22T04:17:06.930Z,10.48
2022-10-22T04:19:33.320Z,10.43
2022-10-22T04:21:59.894Z,10.47
2022-10-22T04:24:26.643Z,10.55
2022-10-22T04:26:56.562Z,10.44
2022-10-22T04:29:23.541Z,10.45
2022-10-22T04:31:49.930Z,10.41
2022-10-22T04:34:16.453Z,10.41
2022-10-22T04:36:42.862Z,10.40
2022-10-22T04:39:09.403Z,10.40
2022-10-22T04:41:38.689Z,10.43
2022-10-22T04:44:06.294Z,10.41
2022-10-22T04:46:34.481Z,10.41
2022-10-22T04:49:03.295Z,10.41
2022-10-22T04:51:30.095Z,10.41
2022-10-22T04:53:56.486Z,10.43
2022-10-22T04:56:25.540Z,10.47
2022-10-22T04:59:00.223Z,10.58
2022-10-22T05:01:29.220Z,10.52
2022-10-22T05:03:57.583Z,10.56
2022-10-22T05:06:25.051Z,10.49
2022-10-22T05:08:59.249Z,10.44
2022-10-22T05:11:33.803Z,10.46
2022-10-22T05:14:02.183Z,10.43
2022-10-22T05:16:29.886Z,10.46
2022-10-22T05:18:58.793Z,10.49
2022-10-22T05:21:25.291Z,10.46
2022-10-22T05:23:54.936Z,10.41
2022-10-22T05:26:22.487Z,10.50
2022-10-22T05:28:49.757Z,10.44
2022-10-22T05:31:16.557Z,10.42
2022-10-22T05:33:43.569Z,10.48
2022-10-22T05:36:14.549Z,10.44
2022-10-22T05:38:41.036Z,10.42
2022-10-22T05:41:12.465Z,10.46
2022-10-22T05:43:39.668Z,10.49
2022-10-22T05:46:12.588Z,10.61
2022-10-22T05:48:39.574Z,10.52
2022-10-22T05:51:13.619Z,10.61
2022-10-22T05:53:42.401Z,10.60
2022-10-22T05:56:13.338Z,10.66
2022-10-22T05:58:40.006Z,10.51
2022-10-22T06:01:09.193Z,10.61
2022-10-22T06:03:35.553Z,10.63
2022-10-22T06:06:05.216Z,10.55
2022-10-22T06:08:31.749Z,10.51
2022-10-22T06:10:58.252Z,10.52
2022-10-22T06:13:24.662Z,10.52
2022-10-22T06:15:53.448Z,10.51
2022-10-22T06:18:20.216Z,10.67
2022-10-22T06:20:47.638Z,10.55
2022-10-22T06:23:14.795Z,10.55
2022-10-22T06:25:42.559Z,10.59
2022-10-22T06:28:09.330Z,10.59
2022-10-22T06:30:41.745Z,10.61
2022-10-22T06:33:10.668Z,10.59
2022-10-22T06:35:37.049Z,10.61
2022-10-22T06:38:03.434Z,10.77
2022-10-22T06:40:30.413Z,10.93
2022-10-22T06:42:59.406Z,10.85
2022-10-22T06:45:25.896Z,10.77
2022-10-22T06:47:52.387Z,10.75
2022-10-22T06:50:18.866Z,10.76
2022-10-22T06:52:45.556Z,10.77
2022-10-22T06:55:11.962Z,10.74
2022-10-22T06:57:38.755Z,10.72
2022-10-22T07:00:07.138Z,10.79
2022-10-22T07:02:33.574Z,10.82
2022-10-22T07:04:59.949Z,10.88
2022-10-22T07:07:26.572Z,10.83
2022-10-22T07:09:52.942Z,10.81
2022-10-22T07:12:19.318Z,10.79
2022-10-22T07:14:45.736Z,10.81
2022-10-22T07:17:12.116Z,10.80
2022-10-22T07:19:38.504Z,10.86
2022-10-22T07:22:04.952Z,10.85
2022-10-22T07:24:31.454Z,10.73
2022-10-22T07:26:58.373Z,10.62
2022-10-22T07:29:24.813Z,10.62
2022-10-22T07:31:51.312Z,10.64
2022-10-22T07:34:17.751Z,10.74
2022-10-22T07:36:44.132Z,10.69
2022-10-22T07:39:10.623Z,10.66
2022-10-22T07:41:36.985Z,10.80
2022-10-22T07:44:03.612Z,10.94
2022-10-22T07:46:30.026Z,10.84
2022-10-22T07:48:56.585Z,10.83
2022-10-22T07:51:23.095Z,10.74
2022-10-22T07:53:49.517Z,10.69
2022-10-22T07:56:16.025Z,10.69
2022-10-22T07:58:42.392Z,10.69
2022-10-22T08:01:09.020Z,10.66
2022-10-22T08:03:35.590Z,10.76
2022-10-22T08:06:02.413Z,10.74
2022-10-22T08:08:30.859Z,10.77
2022-10-22T08:10:59.996Z,10.71
2022-10-22T08:13:27.549Z,10.71
2022-10-22T08:15:57.291Z,10.88
2022-10-22T08:18:24.442Z,10.86
2022-10-22T08:20:51.789Z,10.90
2022-10-22T08:23:18.210Z,10.84
2022-10-22T08:25:44.602Z,10.79
2022-10-22T08:28:11.032Z,10.69
2022-10-22T08:30:38.732Z,10.72
2022-10-22T08:33:05.983Z,10.65
2022-10-22T08:35:32.636Z,10.73
2022-10-22T08:37:59.147Z,10.81
2022-10-22T08:40:39.447Z,10.90
2022-10-22T08:43:26.298Z,10.87
2022-10-22T08:46:01.588Z,11.04
2022-10-22T08:48:49.680Z,10.95
2022-10-22T08:51:20.309Z,10.99
2022-10-22T08:53:56.728Z,11.14
2022-10-22T08:56:23.820Z,11.20
2022-10-22T08:59:02.872Z,11.17
2022-10-22T09:01:38.257Z,11.30
2022-10-22T09:04:45.120Z,11.40
2022-10-22T09:07:11.614Z,11.53
2022-10-22T09:09:47.764Z,11.55
2022-10-22T09:12:20.115Z,11.60
2022-10-22T09:14:47.088Z,11.61
2022-10-22T09:17:21.375Z,11.60
2022-10-22T09:20:17.330Z,11.75
2022-10-22T09:23:01.217Z,11.80
2022-10-22T09:25:30.746Z,11.84
2022-10-22T09:27:59.917Z,11.90
2022-10-22T09:30:29.876Z,11.92
2022-10-22T09:33:12.263Z,11.92
2022-10-22T09:35:56.388Z,12.00
2022-10-22T09:38:28.809Z,12.09
2022-10-22T09:40:57.249Z,12.26
2022-10-22T09:43:24.436Z,12.43
2022-10-22T09:46:03.439Z,12.56
2022-10-22T09:48:34.548Z,12.53
2022-10-22T09:51:26.454Z,12.68
2022-10-22T09:54:02.006Z,12.71
2022-10-22T09:56:43.396Z,12.84
2022-10-22T09:59:16.125Z,12.82
2022-10-22T10:01:43.133Z,12.91
2022-10-22T10:04:14.179Z,12.98
2022-10-22T10:06:43.424Z,13.05
2022-10-22T10:09:21.285Z,13.08
2022-10-22T10:12:14.980Z,13.22
2022-10-22T10:15:00.501Z,13.38
2022-10-22T10:17:47.717Z,13.55
2022-10-22T10:20:27.862Z,13.82
2022-10-22T10:23:19.534Z,14.12
2022-10-22T10:25:58.199Z,14.37
2022-10-22T10:28:39.821Z,14.51
2022-10-22T10:31:33.187Z,14.50
2022-10-22T10:34:05.336Z,14.65
2022-10-22T10:36:59.873Z,14.49
2022-10-22T10:39:37.821Z,14.39
2022-10-22T10:42:35.224Z,14.39
2022-10-22T10:45:23.134Z,14.49
2022-10-22T10:47:55.323Z,14.46
2022-10-22T10:50:49.605Z,14.53
2022-10-22T10:53:33.667Z,14.77
2022-10-22T10:56:05.717Z,14.66
2022-10-22T10:58:49.219Z,14.57
2022-10-22T11:01:33.078Z,14.67
2022-10-22T11:04:25.969Z,14.77
2022-10-22T11:07:11.581Z,15.03
2022-10-22T11:10:00.607Z,15.52
2022-10-22T11:12:33.472Z,16.11
2022-10-22T11:15:06.283Z,16.43
2022-10-22T11:17:40.414Z,16.56
2022-10-22T11:20:18.685Z,16.47
2022-10-22T11:23:16.886Z,16.14
2022-10-22T11:25:48.495Z,16.29
2022-10-22T11:28:53.410Z,17.07
2022-10-22T11:31:25.364Z,16.78
2022-10-22T11:34:32.605Z,16.28
2022-10-22T11:37:01.118Z,15.47
2022-10-22T11:39:42.694Z,15.28
2022-10-22T11:42:37.722Z,15.02
2022-10-22T11:45:06.791Z,14.54
2022-10-22T11:47:42.150Z,14.37
2022-10-22T11:50:25.486Z,14.10
2022-10-22T11:53:08.382Z,13.90
2022-10-22T11:55:51.428Z,13.78
2022-10-22T11:58:50.814Z,13.81
2022-10-22T12:01:48.592Z,13.80
2022-10-22T12:04:17.766Z,13.75
2022-10-22T12:07:14.605Z,13.75
2022-10-22T12:09:44.187Z,13.73
2022-10-22T12:12:19.308Z,13.80
2022-10-22T12:15:04.181Z,13.82
2022-10-22T12:17:31.266Z,13.92
2022-10-22T12:20:14.169Z,14.01
2022-10-22T12:22:41.461Z,14.11
2022-10-22T12:25:24.752Z,14.16
2022-10-22T12:27:55.072Z,14.18
2022-10-22T12:30:27.449Z,14.27
2022-10-22T12:33:00.591Z,14.32
2022-10-22T12:35:30.455Z,14.32
2022-10-22T12:38:01.299Z,14.37
2022-10-22T12:40:30.006Z,14.35
2022-10-22T12:43:01.934Z,14.38
2022-10-22T12:45:30.857Z,14.40
2022-10-22T12:47:59.869Z,14.51
2022-10-22T12:50:40.180Z,14.61
2022-10-22T12:53:33.607Z,14.68
2022-10-22T12:56:03.067Z,14.94
2022-10-22T12:58:44.487Z,14.93
2022-10-22T13:01:13.013Z,14.83
2022-10-22T13:03:45.971Z,14.84
2022-10-22T13:06:18.495Z,14.75
2022-10-22T13:09:00.378Z,14.77
2022-10-22T13:11:51.814Z,14.92
2022-10-22T13:14:22.257Z,15.01
2022-10-22T13:17:07.579Z,14.99
2022-10-22T13:19:36.955Z,15.04
2022-10-22T13:22:03.403Z,15.01
2022-10-22T13:24:31.043Z,14.99
2022-10-22T13:26:57.530Z,15.01
2022-10-22T13:29:24.803Z,15.04
2022-10-22T13:31:53.778Z,15.19
2022-10-22T13:34:23.434Z,15.27
2022-10-22T13:36:50.746Z,15.29
2022-10-22T13:39:23.198Z,15.23
2022-10-22T13:41:51.121Z,15.24
2022-10-22T13:44:18.878Z,15.29
2022-10-22T13:46:46.138Z,15.31
2022-10-22T13:49:23.391Z,15.23
2022-10-22T13:51:51.373Z,15.24
2022-10-22T13:54:23.745Z,15.22
2022-10-22T13:56:50.806Z,15.22
2022-10-22T13:59:19.813Z,15.16
2022-10-22T14:01:49.427Z,15.29
2022-10-22T14:04:16.060Z,15.32
2022-10-22T14:06:42.687Z,15.43
2022-10-22T14:09:16.717Z,15.47
2022-10-22T14:11:43.429Z,15.44
2022-10-22T14:14:13.992Z,15.63
2022-10-22T14:16:40.562Z,15.48
2022-10-22T14:19:07.780Z,15.54
2022-10-22T14:21:37.472Z,15.57
2022-10-22T14:24:06.116Z,15.58
2022-10-22T14:26:35.115Z,15.60
2022-10-22T14:29:10.656Z,15.53
2022-10-22T14:31:43.223Z,15.51
2022-10-22T14:34:11.615Z,15.47
2022-10-22T14:36:38.158Z,15.50
2022-10-22T14:39:06.962Z,15.46
2022-10-22T14:41:33.756Z,15.45
2022-10-22T14:44:00.533Z,15.39
2022-10-22T14:46:27.269Z,15.35
2022-10-22T14:48:53.919Z,15.28
2022-10-22T14:51:21.626Z,15.42
2022-10-22T14:53:48.601Z,15.34
2022-10-22T14:56:18.192Z,15.25
2022-10-22T14:58:45.721Z,15.15
2022-10-22T15:01:12.628Z,15.13
2022-10-22T15:03:39.155Z,15.09
2022-10-22T15:06:06.561Z,15.09
2022-10-22T15:08:33.084Z,15.11
2022-10-22T15:11:07.998Z,15.04
2022-10-22T15:13:35.179Z,15.05
2022-10-22T15:16:02.064Z,14.99
2022-10-22T15:18:28.722Z,14.92
2022-10-22T15:21:04.372Z,14.86
2022-10-22T15:23:31.317Z,14.81
2022-10-22T15:25:58.155Z,14.76
2022-10-22T15:28:25.340Z,14.72
2022-10-22T15:30:56.611Z,14.68
2022-10-22T15:33:23.871Z,14.66
2022-10-22T15:35:50.486Z,14.64
2022-10-22T15:38:17.663Z,14.60
2022-10-22T15:40:44.760Z,14.59
2022-10-22T15:43:11.820Z,14.53
2022-10-22T15:45:38.881Z,14.45
2022-10-22T15:48:05.572Z,14.39
2022-10-22T15:50:32.251Z,14.32
2022-10-22T15:52:58.813Z,14.24
2022-10-22T15:55:25.355Z,14.15
2022-10-22T15:57:56.469Z,14.05
2022-10-22T16:00:25.123Z,13.95
2022-10-22T16:02:53.716Z,13.83
2022-10-22T16:05:20.358Z,13.73
2022-10-22T16:07:47.148Z,13.63
2022-10-22T16:10:16.793Z,13.57
2022-10-22T16:12:43.597Z,13.49
2022-10-22T16:15:10.661Z,13.43
2022-10-22T16:17:37.229Z,13.36
2022-10-22T16:20:04.003Z,13.30
2022-10-22T16:22:30.587Z,13.20
2022-10-22T16:24:57.123Z,13.12
2022-10-22T16:27:23.602Z,13.04
2022-10-22T16:29:50.024Z,12.99
2022-10-22T16:32:16.803Z,12.94
2022-10-22T16:34:43.484Z,12.92
2022-10-22T16:37:10.358Z,12.88
2022-10-22T16:39:37.126Z,12.82
2022-10-22T16:42:04.036Z,12.73
2022-10-22T16:44:30.526Z,12.72
2022-10-22T16:46:56.960Z,12.70
2022-10-22T16:49:23.587Z,12.60
2022-10-22T16:51:50.091Z,12.52
2022-10-22T16:54:16.631Z,12.45
2022-10-22T16:56:43.086Z,12.38
2022-10-22T16:59:09.541Z,12.31
2022-10-22T17:01:40.558Z,12.30
2022-10-22T17:04:08.041Z,12.28
2022-10-22T17:06:34.709Z,12.21
2022-10-22T17:09:01.378Z,12.17
2022-10-22T17:11:30.185Z,12.16
2022-10-22T17:13:56.918Z,12.09
2022-10-22T17:16:24.956Z,12.06
2022-10-22T17:18:53.861Z,12.03
2022-10-22T17:21:21.704Z,11.99
2022-10-22T17:23:48.550Z,11.94
2022-10-22T17:26:18.474Z,11.92
2022-10-22T17:28:45.310Z,11.85
2022-10-22T17:31:22.596Z,11.82
2022-10-22T17:33:49.991Z,11.83
2022-10-22T17:36:18.349Z,11.86
2022-10-22T17:38:50.680Z,11.79
2022-10-22T17:41:20.867Z,11.78
2022-10-22T17:43:47.876Z,11.76
2022-10-22T17:46:23.265Z,11.69
2022-10-22T17:48:52.623Z,11.67
2022-10-22T17:51:20.304Z,11.61
2022-10-22T17:53:48.023Z,11.57
2022-10-22T17:56:16.876Z,11.52
2022-10-22T17:58:43.694Z,11.51
2022-10-22T18:01:29.723Z,11.52
2022-10-22T18:04:03.475Z,11.51
2022-10-22T18:06:30.640Z,11.49
2022-10-22T18:08:57.307Z,11.40
2022-10-22T18:11:26.593Z,11.34
2022-10-22T18:13:55.240Z,11.32
2022-10-22T18:16:21.934Z,11.31
2022-10-22T18:18:49.857Z,11.23
2022-10-22T18:21:17.537Z,11.24
2022-10-22T18:23:45.020Z,11.21
2022-10-22T18:26:11.473Z,11.09
2022-10-22T18:28:38.018Z,11.08
2022-10-22T18:31:09.259Z,11.06
2022-10-22T18:33:36.873Z,11.04
2022-10-22T18:36:05.995Z,11.03
2022-10-22T18:38:33.422Z,10.96
2022-10-22T18:41:00.368Z,10.95
2022-10-22T18:43:27.233Z,10.92
2022-10-22T18:45:53.688Z,10.85
2022-10-22T18:48:22.784Z,10.80
2022-10-22T18:51:03.036Z,10.73
2022-10-22T18:53:29.657Z,10.73
2022-10-22T18:55:57.653Z,10.71
2022-10-22T18:58:24.238Z,10.70
2022-10-22T19:00:51.152Z,10.71
2022-10-22T19:03:17.836Z,10.70
2022-10-22T19:05:49.919Z,10.64
2022-10-22T19:08:19.627Z,10.58
2022-10-22T19:10:47.258Z,10.56
2022-10-22T19:13:15.869Z,10.50
2022-10-22T19:15:42.823Z,10.47
2022-10-22T19:18:10.482Z,10.46
2022-10-22T19:20:37.495Z,10.47
2022-10-22T19:23:04.481Z,10.48
2022-10-22T19:25:30.956Z,10.42
2022-10-22T19:27:57.425Z,10.41
2022-10-22T19:30:24.277Z,10.40
2022-10-22T19:32:50.811Z,10.40
2022-10-22T19:35:17.727Z,10.38
2022-10-22T19:37:48.266Z,10.38
2022-10-22T19:40:15.418Z,10.37
2022-10-22T19:42:47.170Z,10.32
2022-10-22T19:45:13.635Z,10.26
2022-10-22T19:47:40.380Z,10.28
2022-10-22T19:50:06.979Z,10.25
2022-10-22T19:52:33.511Z,10.24
2022-10-22T19:55:00.025Z,10.21
2022-10-22T19:57:26.515Z,10.19
2022-10-22T19:59:52.990Z,10.15
2022-10-22T20:02:19.685Z,10.15
2022-10-22T20:04:49.274Z,10.14
2022-10-22T20:07:16.502Z,10.15
2022-10-22T20:09:42.929Z,10.13
2022-10-22T20:12:09.324Z,10.11
2022-10-22T20:14:36.138Z,10.07
2022-10-22T20:17:02.635Z,10.06
2022-10-22T20:19:29.838Z,10.06
2022-10-22T20:21:56.567Z,10.08
2022-10-22T20:24:23.093Z,10.08
2022-10-22T20:26:49.641Z,10.09
2022-10-22T20:29:19.051Z,10.11
2022-10-22T20:31:46.495Z,10.10
2022-10-22T20:34:13.261Z,10.11
2022-10-22T20:36:40.564Z,10.13
2022-10-22T20:39:10.879Z,10.14
2022-10-22T20:41:40.675Z,10.16
2022-10-22T20:44:11.515Z,10.20
2022-10-22T20:46:38.418Z,10.25
2022-10-22T20:49:09.097Z,10.27
2022-10-22T20:51:37.048Z,10.27
2022-10-22T20:54:05.351Z,10.28
2022-10-22T20:56:32.457Z,10.31
2022-10-22T20:59:06.150Z,10.32
2022-10-22T21:01:39.250Z,10.33
2022-10-22T21:04:07.262Z,10.33
2022-10-22T21:06:38.364Z,10.34
2022-10-22T21:09:12.403Z,10.34
2022-10-22T21:11:40.795Z,10.38
2022-10-22T21:14:09.666Z,10.37
2022-10-22T21:16:41.343Z,10.40
2022-10-22T21:19:08.176Z,10.37
2022-10-22T21:21:34.943Z,10.34
2022-10-22T21:24:01.654Z,10.33
2022-10-22T21:26:28.860Z,10.29
2022-10-22T21:28:58.170Z,10.27
2022-10-22T21:31:26.534Z,10.27
2022-10-22T21:33:54.049Z,10.25
2022-10-22T21:36:22.909Z,10.17
2022-10-22T21:38:53.984Z,10.17
2022-10-22T21:41:23.022Z,10.12
2022-10-22T21:43:50.736Z,10.06
2022-10-22T21:46:18.917Z,10.03
2022-10-22T21:48:46.021Z,9.99
2022-10-22T21:51:18.621Z,9.99
2022-10-22T21:53:46.325Z,9.95
2022-10-22T21:56:33.781Z,9.93
2022-10-22T21:59:01.814Z,9.94
2022-10-22T22:01:28.823Z,9.90
2022-10-22T22:03:55.669Z,9.86
2022-10-22T22:06:28.268Z,9.84
2022-10-22T22:09:00.755Z,9.81
2022-10-22T22:11:29.139Z,9.79
2022-10-22T22:13:58.270Z,9.73
2022-10-22T22:16:28.832Z,9.72
2022-10-22T22:18:58.681Z,9.69
2022-10-22T22:21:25.464Z,9.69
2022-10-22T22:23:52.224Z,9.63
2022-10-22T22:26:26.690Z,9.59
2022-10-22T22:28:57.000Z,9.56
2022-10-22T22:31:25.283Z,9.49
2022-10-22T22:33:57.794Z,9.47
2022-10-22T22:36:24.439Z,9.48
2022-10-22T22:38:55.444Z,9.46
2022-10-22T22:41:22.251Z,9.43
2022-10-22T22:43:49.259Z,9.38
2022-10-22T22:46:16.568Z,9.35
2022-10-22T22:48:43.304Z,9.32
2022-10-22T22:51:10.276Z,9.28
2022-10-22T22:53:37.240Z,9.24
2022-10-22T22:56:13.964Z,9.22
2022-10-22T22:58:41.501Z,9.17
2022-10-22T23:01:31.053Z,9.08
2022-10-22T23:03:57.699Z,9.13
2022-10-22T23:06:27.282Z,9.09
2022-10-22T23:08:54.326Z,9.09
2022-10-22T23:11:22.208Z,9.06
2022-10-22T23:13:56.480Z,9.05
2022-10-22T23:16:25.254Z,9.02
2022-10-22T23:18:53.823Z,9.01
2022-10-22T23:21:23.558Z,9.00
2022-10-22T23:23:53.074Z,8.96
2022-10-22T23:26:26.688Z,8.94
2022-10-22T23:28:53.560Z,8.97
2022-10-22T23:31:21.962Z,8.90
2022-10-22T23:33:48.812Z,8.85
2022-10-22T23:36:16.034Z,8.87
2022-10-22T23:38:42.984Z,8.82
2022-10-22T23:41:10.031Z,8.79
2022-10-22T23:43:37.768Z,8.76
2022-10-22T23:46:09.862Z,8.79
2022-10-22T23:48:37.933Z,8.75
2022-10-22T23:51:16.037Z,8.75
2022-10-22T23:53:47.084Z,8.71
2022-10-22T23:56:16.647Z,8.72
2022-10-22T23:58:43.913Z,8.69
